createdAt,value
2023-05-21T00:23:38.243Z,82.61
2023-05-21T00:53:41.947Z,82.33
2023-05-21T01:23:45.211Z,83.20
2023-05-21T01:53:48.612Z,82.78
2023-05-21T02:23:51.905Z,83.78
2023-05-21T02:53:54.851Z,84.16
2023-05-21T03:24:00.025Z,85.67
2023-05-21T03:54:02.947Z,86.88
2023-05-21T04:24:06.687Z,86.05
2023-05-21T04:54:09.655Z,84.30
2023-05-21T05:24:13.273Z,81.79
2023-05-21T05:54:16.620Z,80.00
2023-05-21T06:24:19.694Z,75.59
2023-05-21T06:54:23.625Z,72.39
2023-05-21T07:24:28.013Z,68.43
2023-05-21T07:54:30.912Z,64.10
2023-05-21T08:24:35.194Z,61.22
2023-05-21T08:54:38.125Z,55.12
2023-05-21T09:24:42.377Z,50.83
2023-05-21T09:54:45.344Z,49.44
2023-05-21T10:24:49.083Z,45.95
2023-05-21T10:54:52.013Z,43.94
2023-05-21T11:24:56.002Z,40.74
2023-05-21T11:54:58.872Z,40.02
2023-05-21T12:25:02.958Z,38.86
2023-05-21T12:55:07.096Z,37.46
2023-05-21T13:25:12.824Z,36.26
2023-05-21T13:55:15.994Z,35.73
2023-05-21T14:25:19.887Z,36.30
2023-05-21T14:55:22.881Z,36.73
2023-05-21T15:25:26.419Z,35.82
2023-05-21T15:55:29.758Z,35.87
2023-05-21T16:25:33.077Z,36.60
2023-05-21T16:55:36.195Z,37.09
2023-05-21T17:25:40.834Z,38.16
2023-05-21T17:55:44.306Z,37.90
2023-05-21T18:25:47.350Z,40.50
2023-05-21T18:55:50.855Z,44.11
2023-05-21T19:25:55.207Z,45.52
2023-05-21T19:55:58.147Z,48.69
2023-05-21T20:26:02.547Z,52.06
2023-05-21T20:56:05.463Z,55.12
2023-05-21T21:26:09.177Z,55.96
2023-05-21T21:56:12.266Z,55.63
2023-05-21T22:26:15.693Z,56.70
2023-05-21T22:56:18.622Z,58.71
2023-05-21T23:26:22.482Z,61.65
2023-05-21T23:56:25.587Z,62.74
